createdAt,value
2022-10-11T00:01:09.870Z,13.10
2022-10-11T00:06:11.327Z,13.09
2022-10-11T00:11:12.819Z,13.01
2022-10-11T00:16:15.509Z,13.00
2022-10-11T00:21:17.281Z,12.93
2022-10-11T00:26:18.748Z,12.95
2022-10-11T00:31:20.488Z,12.95
2022-10-11T00:36:22.645Z,12.96
2022-10-11T00:41:24.136Z,12.87
2022-10-11T00:46:28.203Z,12.87
2022-10-11T00:51:43.596Z,12.77
2022-10-11T00:56:49.275Z,12.81
2022-10-11T01:01:52.097Z,12.76
2022-10-11T01:06:54.661Z,12.69
2022-10-11T01:11:59.314Z,12.75
2022-10-11T01:17:27.327Z,12.72
2022-10-11T01:23:07.226Z,12.68
2022-10-11T01:28:33.514Z,12.77
2022-10-11T01:34:27.132Z,12.75
2022-10-11T01:39:48.337Z,12.74
2022-10-11T01:44:51.837Z,12.72
2022-10-11T01:49:59.197Z,12.66
2022-10-11T01:55:18.924Z,12.71
2022-10-11T02:00:21.928Z,12.66
2022-10-11T02:05:47.615Z,12.61
2022-10-11T02:10:55.787Z,12.67
2022-10-11T02:16:00.621Z,12.69
2022-10-11T02:21:06.807Z,12.70
2022-10-11T02:26:11.548Z,12.74
2022-10-11T02:31:15.311Z,12.80
2022-10-11T02:36:28.379Z,12.81
2022-10-11T02:41:36.167Z,12.89
2022-10-11T02:46:38.649Z,12.84
2022-10-11T02:51:40.067Z,12.84
2022-10-11T02:56:41.639Z,12.95
2022-10-11T03:01:43.218Z,13.02
2022-10-11T03:06:44.678Z,13.01
2022-10-11T03:11:46.267Z,12.92
2022-10-11T03:16:47.681Z,12.84
2022-10-11T03:21:49.100Z,12.75
2022-10-11T03:26:50.571Z,12.96
2022-10-11T03:31:52.002Z,12.81
2022-10-11T03:36:53.440Z,12.69
2022-10-11T03:41:54.843Z,12.53
2022-10-11T03:46:56.247Z,12.46
2022-10-11T03:51:57.657Z,12.46
2022-10-11T03:56:59.125Z,12.49
2022-10-11T04:02:00.700Z,12.47
2022-10-11T04:07:02.233Z,12.41
2022-10-11T04:12:03.932Z,12.41
2022-10-11T04:17:05.333Z,12.60
2022-10-11T04:22:07.450Z,12.53
2022-10-11T04:27:08.872Z,12.58
2022-10-11T04:32:10.330Z,12.46
2022-10-11T04:37:11.887Z,12.43
2022-10-11T04:42:13.362Z,12.34
2022-10-11T04:47:14.867Z,12.27
2022-10-11T04:52:16.297Z,12.34
2022-10-11T04:57:17.708Z,12.28
2022-10-11T05:02:19.216Z,12.12
2022-10-11T05:07:20.717Z,12.19
2022-10-11T05:12:22.198Z,12.20
2022-10-11T05:17:23.619Z,12.36
2022-10-11T05:22:25.044Z,12.28
2022-10-11T05:27:26.477Z,12.31
2022-10-11T05:32:28.207Z,12.21
2022-10-11T05:37:29.717Z,12.25
2022-10-11T05:42:31.135Z,12.35
2022-10-11T05:47:33.288Z,12.44
2022-10-11T05:52:34.729Z,12.50
2022-10-11T05:57:36.136Z,12.60
2022-10-11T06:02:37.552Z,12.67
2022-10-11T06:07:39.492Z,12.78
2022-10-11T06:12:40.943Z,12.54
2022-10-11T06:17:42.480Z,12.58
2022-10-11T06:22:43.977Z,12.63
2022-10-11T06:27:45.408Z,12.96
2022-10-11T06:32:46.820Z,12.71
2022-10-11T06:37:48.217Z,12.66
2022-10-11T06:42:49.917Z,12.63
2022-10-11T06:47:51.318Z,12.69
2022-10-11T06:52:52.748Z,12.69
2022-10-11T06:57:54.208Z,12.79
2022-10-11T07:02:55.630Z,12.39
2022-10-11T07:07:57.091Z,12.58
2022-10-11T07:12:58.512Z,12.64
2022-10-11T07:17:59.969Z,12.84
2022-10-11T07:23:01.526Z,13.24
2022-10-11T07:28:03.030Z,13.08
2022-10-11T07:33:04.593Z,13.48
2022-10-11T07:38:06.647Z,13.72
2022-10-11T07:43:08.330Z,13.80
2022-10-11T07:48:09.735Z,13.92
2022-10-11T07:53:11.155Z,13.63
2022-10-11T07:58:13.243Z,13.78
2022-10-11T08:03:15.016Z,13.98
2022-10-11T08:08:16.447Z,14.17
2022-10-11T08:13:17.924Z,14.52
2022-10-11T08:18:19.462Z,14.84
2022-10-11T08:23:20.958Z,14.12
2022-10-11T08:28:22.395Z,14.38
2022-10-11T08:33:25.675Z,14.57
2022-10-11T08:38:27.090Z,14.30
2022-10-11T08:43:50.256Z,14.68
2022-10-11T08:48:52.342Z,14.99
2022-10-11T08:54:03.431Z,15.22
2022-10-11T08:59:13.616Z,15.50
2022-10-11T09:04:17.202Z,15.64
2022-10-11T09:09:41.297Z,15.43
2022-10-11T09:15:02.740Z,15.43
2022-10-11T09:20:31.112Z,15.68
2022-10-11T09:25:46.832Z,15.55
2022-10-11T09:30:51.171Z,15.75
2022-10-11T09:35:52.737Z,15.81
2022-10-11T09:41:09.133Z,15.55
2022-10-11T09:46:20.744Z,15.94
2022-10-11T09:51:25.807Z,15.96
2022-10-11T09:56:29.714Z,15.71
2022-10-11T10:01:33.494Z,16.00
2022-10-11T10:06:35.569Z,16.14
2022-10-11T10:11:37.622Z,16.40
2022-10-11T10:16:39.085Z,15.98
2022-10-11T10:21:49.103Z,16.07
2022-10-11T10:27:14.720Z,15.90
2022-10-11T10:32:28.254Z,15.97
2022-10-11T10:37:35.102Z,15.86
2022-10-11T10:42:37.201Z,16.34
2022-10-11T10:48:09.413Z,15.89
2022-10-11T10:53:19.530Z,16.14
2022-10-11T10:58:26.739Z,16.43
2022-10-11T11:03:42.879Z,16.47
2022-10-11T11:09:01.267Z,16.19
2022-10-11T11:14:24.551Z,16.02
2022-10-11T11:19:59.635Z,16.44
2022-10-11T11:25:40.306Z,16.52
2022-10-11T11:30:53.224Z,16.66
2022-10-11T11:35:58.103Z,16.54
2022-10-11T11:41:03.475Z,16.15
2022-10-11T11:46:13.397Z,16.17
2022-10-11T11:51:32.742Z,16.24
2022-10-11T11:56:50.772Z,16.20
2022-10-11T12:02:16.435Z,16.32
2022-10-11T12:07:22.208Z,16.13
2022-10-11T12:12:32.127Z,15.97
2022-10-11T12:17:33.758Z,16.00
2022-10-11T12:22:35.097Z,15.59
2022-10-11T12:27:51.464Z,15.60
2022-10-11T12:33:05.560Z,15.92
2022-10-11T12:38:28.853Z,16.01
2022-10-11T12:43:36.624Z,16.01
2022-10-11T12:48:55.066Z,16.39
2022-10-11T12:54:27.265Z,16.46
2022-10-11T12:59:31.899Z,16.44
2022-10-11T13:04:34.087Z,16.04
2022-10-11T13:09:44.159Z,16.29
2022-10-11T13:15:00.462Z,16.21
2022-10-11T13:20:26.308Z,16.29
2022-10-11T13:25:30.577Z,16.30
2022-10-11T13:30:37.434Z,16.28
2022-10-11T13:35:39.155Z,16.28
2022-10-11T13:40:40.670Z,16.11
2022-10-11T13:45:42.197Z,16.09
2022-10-11T13:50:51.149Z,15.61
2022-10-11T13:55:54.209Z,15.96
2022-10-11T14:01:16.609Z,15.83
2022-10-11T14:06:18.109Z,15.90
2022-10-11T14:11:35.297Z,15.91
2022-10-11T14:16:36.856Z,15.96
2022-10-11T14:21:47.345Z,16.09
2022-10-11T14:26:51.725Z,16.04
2022-10-11T14:32:16.069Z,16.03
2022-10-11T14:37:19.116Z,16.12
2022-10-11T14:42:20.576Z,16.05
2022-10-11T14:47:21.971Z,16.09
2022-10-11T14:52:23.666Z,16.00
2022-10-11T14:57:26.314Z,16.01
2022-10-11T15:02:27.779Z,15.93
2022-10-11T15:07:29.182Z,15.77
2022-10-11T15:12:30.580Z,15.72
2022-10-11T15:17:31.979Z,15.74
2022-10-11T15:22:33.543Z,15.60
2022-10-11T15:27:34.976Z,15.41
2022-10-11T15:32:36.383Z,15.27
2022-10-11T15:37:38.053Z,15.27
2022-10-11T15:42:39.520Z,15.17
2022-10-11T15:47:41.153Z,15.02
2022-10-11T15:52:42.617Z,14.82
2022-10-11T15:57:44.084Z,14.67
2022-10-11T16:02:45.490Z,14.56
2022-10-11T16:07:47.013Z,14.40
2022-10-11T16:12:49.048Z,14.25
2022-10-11T16:17:50.852Z,14.04
2022-10-11T16:22:54.195Z,13.86
2022-10-11T16:27:55.592Z,13.71
2022-10-11T16:32:57.015Z,13.59
2022-10-11T16:37:58.446Z,13.44
2022-10-11T16:43:07.475Z,13.34
2022-10-11T16:48:09.509Z,13.22
2022-10-11T16:53:10.917Z,12.96
2022-10-11T16:58:12.357Z,12.86
2022-10-11T17:03:13.801Z,12.78
2022-10-11T17:08:15.226Z,12.67
2022-10-11T17:13:16.641Z,12.59
2022-10-11T17:18:18.146Z,12.51
2022-10-11T17:23:19.569Z,12.37
2022-10-11T17:28:21.099Z,12.29
2022-10-11T17:33:22.685Z,12.20
2022-10-11T17:38:28.166Z,12.07
2022-10-11T17:43:29.860Z,11.96
2022-10-11T17:48:32.989Z,11.87
2022-10-11T17:53:34.764Z,11.80
2022-10-11T17:58:36.965Z,11.72
2022-10-11T18:03:38.356Z,11.66
2022-10-11T18:08:41.122Z,11.56
2022-10-11T18:13:45.680Z,11.52
2022-10-11T18:18:47.584Z,11.41
2022-10-11T18:23:49.058Z,11.34
2022-10-11T18:28:52.552Z,11.21
2022-10-11T18:33:55.075Z,11.10
2022-10-11T18:38:59.905Z,11.05
2022-10-11T18:44:04.924Z,11.01
2022-10-11T18:49:06.601Z,10.98
2022-10-11T18:54:10.906Z,10.90
2022-10-11T18:59:13.533Z,10.85
2022-10-11T19:04:18.265Z,10.79
2022-10-11T19:09:25.971Z,10.77
2022-10-11T19:14:30.161Z,10.74
2022-10-11T19:19:32.855Z,10.68
2022-10-11T19:24:34.300Z,10.62
2022-10-11T19:29:35.783Z,10.51
2022-10-11T19:34:37.242Z,10.44
2022-10-11T19:39:38.701Z,10.34
2022-10-11T19:44:40.207Z,10.29
2022-10-11T19:49:41.617Z,10.25
2022-10-11T19:54:43.159Z,10.23
2022-10-11T19:59:45.696Z,10.18
2022-10-11T20:04:52.988Z,10.11
2022-10-11T20:09:54.772Z,10.07
2022-10-11T20:14:56.199Z,10.00
2022-10-11T20:19:57.617Z,9.94
2022-10-11T20:24:59.834Z,9.96
2022-10-11T20:30:01.257Z,9.93
2022-10-11T20:35:02.843Z,9.87
2022-10-11T20:40:05.284Z,9.82
2022-10-11T20:45:07.336Z,9.76
2022-10-11T20:50:08.969Z,9.69
2022-10-11T20:55:10.450Z,9.64
2022-10-11T21:00:12.369Z,9.62
2022-10-11T21:05:13.823Z,9.59
2022-10-11T21:10:15.230Z,9.47
2022-10-11T21:15:16.648Z,9.23
2022-10-11T21:20:18.443Z,9.24
2022-10-11T21:25:20.072Z,9.31
2022-10-11T21:30:21.547Z,9.34
2022-10-11T21:35:32.122Z,9.27
2022-10-11T21:40:33.552Z,9.25
2022-10-11T21:45:38.500Z,9.19
2022-10-11T21:50:39.919Z,9.04
2022-10-11T21:55:41.397Z,9.06
2022-10-11T22:00:42.861Z,9.06
2022-10-11T22:05:47.537Z,9.02
2022-10-11T22:10:54.772Z,8.88
2022-10-11T22:15:56.703Z,8.93
2022-10-11T22:21:12.509Z,8.85
2022-10-11T22:26:23.309Z,8.80
2022-10-11T22:31:24.743Z,8.79
2022-10-11T22:36:27.497Z,8.75
2022-10-11T22:41:28.917Z,8.69
2022-10-11T22:46:30.466Z,8.65
2022-10-11T22:51:31.879Z,8.59
2022-10-11T22:56:33.358Z,8.56
2022-10-11T23:01:35.072Z,8.48
2022-10-11T23:06:36.564Z,8.47
2022-10-11T23:11:38.051Z,8.49
2022-10-11T23:16:39.454Z,8.44
2022-10-11T23:21:40.848Z,8.41
2022-10-11T23:26:42.365Z,8.43
2022-10-11T23:31:44.517Z,8.49
2022-10-11T23:36:45.966Z,8.46
2022-10-11T23:41:47.428Z,8.41
2022-10-11T23:46:48.876Z,8.42
2022-10-11T23:51:50.285Z,8.43
2022-10-11T23:56:51.728Z,8.42
